sensor_id;sensor_type;location;lat;lon;timestamp;P1;durP1;ratioP1;P2;durP2;ratioP2
71734;SDS011;59577;52.122;5.406;2023-04-24T00:00:12;0.40;;;0.20;;
71734;SDS011;59577;52.122;5.406;2023-04-24T00:02:40;0.60;;;0.25;;
71734;SDS011;59577;52.122;5.406;2023-04-24T00:05:14;0.68;;;0.30;;
71734;SDS011;59577;52.122;5.406;2023-04-24T00:07:41;0.85;;;0.30;;
71734;SDS011;59577;52.122;5.406;2023-04-24T00:10:08;0.50;;;0.20;;
71734;SDS011;59577;52.122;5.406;2023-04-24T00:12:36;0.60;;;0.20;;
71734;SDS011;59577;52.122;5.406;2023-04-24T00:15:02;0.40;;;0.20;;
71734;SDS011;59577;52.122;5.406;2023-04-24T00:17:29;1.02;;;0.20;;
71734;SDS011;59577;52.122;5.406;2023-04-24T00:19:56;0.60;;;0.30;;
71734;SDS011;59577;52.122;5.406;2023-04-24T00:22:27;1.23;;;0.40;;
71734;SDS011;59577;52.122;5.406;2023-04-24T00:24:54;0.40;;;0.20;;
71734;SDS011;59577;52.122;5.406;2023-04-24T00:27:21;0.77;;;0.30;;
71734;SDS011;59577;52.122;5.406;2023-04-24T00:29:47;1.70;;;0.30;;
71734;SDS011;59577;52.122;5.406;2023-04-24T00:32:14;1.60;;;0.40;;
71734;SDS011;59577;52.122;5.406;2023-04-24T00:34:41;1.63;;;0.60;;
71734;SDS011;59577;52.122;5.406;2023-04-24T00:37:17;0.80;;;0.60;;
71734;SDS011;59577;52.122;5.406;2023-04-24T00:39:43;0.90;;;0.43;;
71734;SDS011;59577;52.122;5.406;2023-04-24T00:42:18;0.70;;;0.40;;
71734;SDS011;59577;52.122;5.406;2023-04-24T00:44:45;1.25;;;0.55;;
71734;SDS011;59577;52.122;5.406;2023-04-24T00:47:12;0.80;;;0.53;;
71734;SDS011;59577;52.122;5.406;2023-04-24T00:49:39;0.90;;;0.50;;
71734;SDS011;59577;52.122;5.406;2023-04-24T00:52:06;6.18;;;0.60;;
71734;SDS011;59577;52.122;5.406;2023-04-24T00:54:35;1.30;;;0.55;;
71734;SDS011;59577;52.122;5.406;2023-04-24T00:57:04;2.10;;;0.88;;
71734;SDS011;59577;52.122;5.406;2023-04-24T00:59:31;1.47;;;0.90;;
71734;SDS011;59577;52.122;5.406;2023-04-24T01:01:58;2.55;;;1.30;;
71734;SDS011;59577;52.122;5.406;2023-04-24T01:04:26;1.30;;;1.00;;
71734;SDS011;59577;52.122;5.406;2023-04-24T01:06:53;2.80;;;0.80;;
71734;SDS011;59577;52.122;5.406;2023-04-24T01:09:22;1.45;;;0.88;;
71734;SDS011;59577;52.122;5.406;2023-04-24T01:11:49;1.00;;;0.80;;
71734;SDS011;59577;52.122;5.406;2023-04-24T01:14:17;1.20;;;0.98;;
71734;SDS011;59577;52.122;5.406;2023-04-24T01:16:43;1.50;;;0.85;;
71734;SDS011;59577;52.122;5.406;2023-04-24T01:19:10;1.48;;;0.95;;
71734;SDS011;59577;52.122;5.406;2023-04-24T01:21:38;2.65;;;1.00;;
71734;SDS011;59577;52.122;5.406;2023-04-24T01:24:05;1.73;;;1.23;;
71734;SDS011;59577;52.122;5.406;2023-04-24T01:26:33;1.45;;;1.00;;
71734;SDS011;59577;52.122;5.406;2023-04-24T01:29:00;1.40;;;1.00;;
71734;SDS011;59577;52.122;5.406;2023-04-24T01:31:26;2.05;;;1.42;;
71734;SDS011;59577;52.122;5.406;2023-04-24T01:33:53;1.10;;;1.00;;
71734;SDS011;59577;52.122;5.406;2023-04-24T01:36:20;4.93;;;1.50;;
71734;SDS011;59577;52.122;5.406;2023-04-24T01:38:49;1.58;;;1.10;;
71734;SDS011;59577;52.122;5.406;2023-04-24T01:41:16;3.35;;;1.50;;
71734;SDS011;59577;52.122;5.406;2023-04-24T01:43:42;2.25;;;1.48;;
71734;SDS011;59577;52.122;5.406;2023-04-24T01:46:09;2.50;;;1.40;;
71734;SDS011;59577;52.122;5.406;2023-04-24T01:48:36;1.73;;;1.50;;
71734;SDS011;59577;52.122;5.406;2023-04-24T01:51:02;2.10;;;1.50;;
71734;SDS011;59577;52.122;5.406;2023-04-24T01:53:29;2.20;;;2.00;;
71734;SDS011;59577;52.122;5.406;2023-04-24T01:55:55;5.65;;;2.50;;
71734;SDS011;59577;52.122;5.406;2023-04-24T01:58:23;2.63;;;2.00;;
71734;SDS011;59577;52.122;5.406;2023-04-24T02:00:49;1.77;;;1.50;;
71734;SDS011;59577;52.122;5.406;2023-04-24T02:03:16;2.42;;;2.03;;
71734;SDS011;59577;52.122;5.406;2023-04-24T02:05:43;2.70;;;1.77;;
71734;SDS011;59577;52.122;5.406;2023-04-24T02:08:11;2.50;;;2.00;;
71734;SDS011;59577;52.122;5.406;2023-04-24T02:10:37;3.10;;;2.47;;
71734;SDS011;59577;52.122;5.406;2023-04-24T02:13:04;3.37;;;1.60;;
71734;SDS011;59577;52.122;5.406;2023-04-24T02:15:31;2.08;;;1.40;;
71734;SDS011;59577;52.122;5.406;2023-04-24T02:17:57;2.85;;;1.75;;
71734;SDS011;59577;52.122;5.406;2023-04-24T02:20:24;1.77;;;1.63;;
71734;SDS011;59577;52.122;5.406;2023-04-24T02:22:51;1.88;;;1.65;;
71734;SDS011;59577;52.122;5.406;2023-04-24T02:25:17;2.00;;;1.37;;
71734;SDS011;59577;52.122;5.406;2023-04-24T02:27:44;1.55;;;1.30;;
71734;SDS011;59577;52.122;5.406;2023-04-24T02:30:11;1.50;;;1.10;;
71734;SDS011;59577;52.122;5.406;2023-04-24T02:32:37;2.20;;;1.42;;
71734;SDS011;59577;52.122;5.406;2023-04-24T02:35:05;2.70;;;1.23;;
71734;SDS011;59577;52.122;5.406;2023-04-24T02:37:38;1.63;;;1.43;;
71734;SDS011;59577;52.122;5.406;2023-04-24T02:40:05;2.90;;;1.35;;
71734;SDS011;59577;52.122;5.406;2023-04-24T02:42:32;1.20;;;0.98;;
71734;SDS011;59577;52.122;5.406;2023-04-24T02:44:58;1.83;;;1.20;;
71734;SDS011;59577;52.122;5.406;2023-04-24T02:47:36;2.67;;;1.10;;
71734;SDS011;59577;52.122;5.406;2023-04-24T02:50:02;1.80;;;1.30;;
71734;SDS011;59577;52.122;5.406;2023-04-24T02:52:29;3.05;;;1.60;;
71734;SDS011;59577;52.122;5.406;2023-04-24T02:54:56;1.92;;;1.48;;
71734;SDS011;59577;52.122;5.406;2023-04-24T02:57:22;3.03;;;1.73;;
71734;SDS011;59577;52.122;5.406;2023-04-24T02:59:49;2.10;;;1.60;;
71734;SDS011;59577;52.122;5.406;2023-04-24T03:02:15;2.80;;;1.63;;
71734;SDS011;59577;52.122;5.406;2023-04-24T03:04:42;2.13;;;1.33;;
71734;SDS011;59577;52.122;5.406;2023-04-24T03:07:09;2.35;;;1.77;;
71734;SDS011;59577;52.122;5.406;2023-04-24T03:09:36;2.20;;;1.60;;
71734;SDS011;59577;52.122;5.406;2023-04-24T03:12:02;4.03;;;1.50;;
71734;SDS011;59577;52.122;5.406;2023-04-24T03:14:28;2.27;;;1.40;;
71734;SDS011;59577;52.122;5.406;2023-04-24T03:16:57;2.83;;;1.50;;
71734;SDS011;59577;52.122;5.406;2023-04-24T03:19:24;3.35;;;1.42;;
71734;SDS011;59577;52.122;5.406;2023-04-24T03:21:50;1.70;;;1.30;;
71734;SDS011;59577;52.122;5.406;2023-04-24T03:24:17;2.47;;;1.35;;
71734;SDS011;59577;52.122;5.406;2023-04-24T03:26:43;2.20;;;1.57;;
71734;SDS011;59577;52.122;5.406;2023-04-24T03:29:10;1.83;;;1.20;;
71734;SDS011;59577;52.122;5.406;2023-04-24T03:31:36;3.65;;;1.60;;
71734;SDS011;59577;52.122;5.406;2023-04-24T03:34:03;1.88;;;1.30;;
71734;SDS011;59577;52.122;5.406;2023-04-24T03:36:30;2.40;;;1.40;;
71734;SDS011;59577;52.122;5.406;2023-04-24T03:38:57;2.17;;;1.30;;
71734;SDS011;59577;52.122;5.406;2023-04-24T03:41:32;2.00;;;1.50;;
71734;SDS011;59577;52.122;5.406;2023-04-24T03:43:59;1.70;;;1.17;;
71734;SDS011;59577;52.122;5.406;2023-04-24T03:46:26;2.97;;;1.52;;
71734;SDS011;59577;52.122;5.406;2023-04-24T03:48:52;3.72;;;2.17;;
71734;SDS011;59577;52.122;5.406;2023-04-24T03:51:19;2.50;;;1.80;;
71734;SDS011;59577;52.122;5.406;2023-04-24T03:53:46;2.83;;;1.42;;
71734;SDS011;59577;52.122;5.406;2023-04-24T03:56:12;4.78;;;1.45;;
71734;SDS011;59577;52.122;5.406;2023-04-24T03:58:38;2.95;;;1.63;;
71734;SDS011;59577;52.122;5.406;2023-04-24T04:01:05;2.92;;;1.60;;
71734;SDS011;59577;52.122;5.406;2023-04-24T04:03:32;2.50;;;1.63;;
71734;SDS011;59577;52.122;5.406;2023-04-24T04:05:59;2.13;;;1.67;;
71734;SDS011;59577;52.122;5.406;2023-04-24T04:08:26;2.17;;;1.35;;
71734;SDS011;59577;52.122;5.406;2023-04-24T04:10:52;2.00;;;1.30;;
71734;SDS011;59577;52.122;5.406;2023-04-24T04:13:19;2.90;;;2.00;;
71734;SDS011;59577;52.122;5.406;2023-04-24T04:15:45;3.10;;;1.60;;
71734;SDS011;59577;52.122;5.406;2023-04-24T04:18:11;2.40;;;1.70;;
71734;SDS011;59577;52.122;5.406;2023-04-24T04:20:38;3.20;;;1.60;;
71734;SDS011;59577;52.122;5.406;2023-04-24T04:23:05;2.67;;;1.92;;
71734;SDS011;59577;52.122;5.406;2023-04-24T04:25:31;2.47;;;1.60;;
71734;SDS011;59577;52.122;5.406;2023-04-24T04:27:58;2.30;;;1.67;;
71734;SDS011;59577;52.122;5.406;2023-04-24T04:30:25;5.57;;;1.88;;
71734;SDS011;59577;52.122;5.406;2023-04-24T04:32:52;4.93;;;1.90;;
71734;SDS011;59577;52.122;5.406;2023-04-24T04:35:18;4.28;;;1.75;;
71734;SDS011;59577;52.122;5.406;2023-04-24T04:37:48;3.25;;;2.13;;
71734;SDS011;59577;52.122;5.406;2023-04-24T04:40:14;3.70;;;2.00;;
71734;SDS011;59577;52.122;5.406;2023-04-24T04:42:41;2.97;;;1.88;;
71734;SDS011;59577;52.122;5.406;2023-04-24T04:45:08;3.30;;;2.40;;
71734;SDS011;59577;52.122;5.406;2023-04-24T04:47:35;3.10;;;2.10;;
71734;SDS011;59577;52.122;5.406;2023-04-24T04:50:09;2.83;;;2.13;;
71734;SDS011;59577;52.122;5.406;2023-04-24T04:52:36;4.70;;;2.33;;
71734;SDS011;59577;52.122;5.406;2023-04-24T04:55:03;5.28;;;2.08;;
71734;SDS011;59577;52.122;5.406;2023-04-24T04:57:30;3.28;;;2.28;;
71734;SDS011;59577;52.122;5.406;2023-04-24T05:00:03;3.75;;;2.22;;
71734;SDS011;59577;52.122;5.406;2023-04-24T05:02:30;3.38;;;2.17;;
71734;SDS011;59577;52.122;5.406;2023-04-24T05:04:57;5.07;;;2.13;;
71734;SDS011;59577;52.122;5.406;2023-04-24T05:07:24;2.80;;;1.90;;
71734;SDS011;59577;52.122;5.406;2023-04-24T05:09:50;2.67;;;1.77;;
71734;SDS011;59577;52.122;5.406;2023-04-24T05:12:18;2.92;;;1.80;;
71734;SDS011;59577;52.122;5.406;2023-04-24T05:14:44;2.55;;;1.80;;
71734;SDS011;59577;52.122;5.406;2023-04-24T05:17:11;2.73;;;1.63;;
71734;SDS011;59577;52.122;5.406;2023-04-24T05:19:37;3.33;;;2.17;;
71734;SDS011;59577;52.122;5.406;2023-04-24T05:22:04;5.38;;;1.92;;
71734;SDS011;59577;52.122;5.406;2023-04-24T05:24:33;3.67;;;1.73;;
71734;SDS011;59577;52.122;5.406;2023-04-24T05:27:00;3.03;;;1.70;;
71734;SDS011;59577;52.122;5.406;2023-04-24T05:29:28;2.43;;;1.57;;
71734;SDS011;59577;52.122;5.406;2023-04-24T05:32:08;1.98;;;1.48;;
71734;SDS011;59577;52.122;5.406;2023-04-24T05:34:34;2.08;;;1.35;;
71734;SDS011;59577;52.122;5.406;2023-04-24T05:37:01;2.88;;;1.38;;
71734;SDS011;59577;52.122;5.406;2023-04-24T05:39:29;3.00;;;1.38;;
71734;SDS011;59577;52.122;5.406;2023-04-24T05:41:55;1.70;;;1.03;;
71734;SDS011;59577;52.122;5.406;2023-04-24T05:44:24;2.75;;;1.30;;
71734;SDS011;59577;52.122;5.406;2023-04-24T05:46:50;3.20;;;1.30;;
71734;SDS011;59577;52.122;5.406;2023-04-24T05:49:17;3.30;;;1.63;;
71734;SDS011;59577;52.122;5.406;2023-04-24T05:51:43;2.45;;;1.27;;
71734;SDS011;59577;52.122;5.406;2023-04-24T05:54:10;3.40;;;1.00;;
71734;SDS011;59577;52.122;5.406;2023-04-24T05:56:38;2.10;;;1.40;;
71734;SDS011;59577;52.122;5.406;2023-04-24T05:59:08;2.88;;;1.25;;
71734;SDS011;59577;52.122;5.406;2023-04-24T06:01:35;3.25;;;1.50;;
71734;SDS011;59577;52.122;5.406;2023-04-24T06:04:05;2.22;;;1.33;;
71734;SDS011;59577;52.122;5.406;2023-04-24T06:06:33;1.50;;;0.87;;
71734;SDS011;59577;52.122;5.406;2023-04-24T06:09:01;1.60;;;0.90;;
71734;SDS011;59577;52.122;5.406;2023-04-24T06:11:28;1.30;;;0.52;;
71734;SDS011;59577;52.122;5.406;2023-04-24T06:13:55;1.00;;;0.50;;
71734;SDS011;59577;52.122;5.406;2023-04-24T06:16:21;1.13;;;0.55;;
71734;SDS011;59577;52.122;5.406;2023-04-24T06:18:48;0.90;;;0.33;;
71734;SDS011;59577;52.122;5.406;2023-04-24T06:21:17;2.60;;;0.30;;
71734;SDS011;59577;52.122;5.406;2023-04-24T06:23:44;1.08;;;0.20;;
71734;SDS011;59577;52.122;5.406;2023-04-24T06:26:12;0.55;;;0.40;;
71734;SDS011;59577;52.122;5.406;2023-04-24T06:28:48;0.52;;;0.10;;
71734;SDS011;59577;52.122;5.406;2023-04-24T06:31:15;1.67;;;0.10;;
71734;SDS011;59577;52.122;5.406;2023-04-24T06:33:46;0.60;;;0.10;;
71734;SDS011;59577;52.122;5.406;2023-04-24T06:36:14;0.30;;;0.10;;
71734;SDS011;59577;52.122;5.406;2023-04-24T06:38:40;2.95;;;0.15;;
71734;SDS011;59577;52.122;5.406;2023-04-24T06:41:07;0.52;;;0.20;;
71734;SDS011;59577;52.122;5.406;2023-04-24T06:43:33;1.10;;;0.40;;
71734;SDS011;59577;52.122;5.406;2023-04-24T06:46:00;2.38;;;0.77;;
71734;SDS011;59577;52.122;5.406;2023-04-24T06:48:28;3.67;;;1.60;;
71734;SDS011;59577;52.122;5.406;2023-04-24T06:50:54;2.30;;;1.65;;
71734;SDS011;59577;52.122;5.406;2023-04-24T06:53:21;4.50;;;2.60;;
71734;SDS011;59577;52.122;5.406;2023-04-24T06:55:47;3.37;;;2.37;;
71734;SDS011;59577;52.122;5.406;2023-04-24T06:58:14;4.82;;;2.90;;
71734;SDS011;59577;52.122;5.406;2023-04-24T07:00:42;7.32;;;3.67;;
71734;SDS011;59577;52.122;5.406;2023-04-24T07:03:08;9.40;;;3.08;;
71734;SDS011;59577;52.122;5.406;2023-04-24T07:05:35;5.40;;;3.30;;
71734;SDS011;59577;52.122;5.406;2023-04-24T07:08:04;8.07;;;2.97;;
71734;SDS011;59577;52.122;5.406;2023-04-24T07:10:49;4.85;;;3.28;;
71734;SDS011;59577;52.122;5.406;2023-04-24T07:13:17;5.63;;;3.00;;
71734;SDS011;59577;52.122;5.406;2023-04-24T07:15:43;8.02;;;2.55;;
71734;SDS011;59577;52.122;5.406;2023-04-24T07:18:10;6.15;;;3.95;;
71734;SDS011;59577;52.122;5.406;2023-04-24T07:20:36;6.17;;;4.00;;
71734;SDS011;59577;52.122;5.406;2023-04-24T07:23:03;5.50;;;3.53;;
71734;SDS011;59577;52.122;5.406;2023-04-24T07:25:30;9.50;;;3.78;;
71734;SDS011;59577;52.122;5.406;2023-04-24T07:27:57;7.35;;;3.42;;
71734;SDS011;59577;52.122;5.406;2023-04-24T07:30:24;7.57;;;3.92;;
71734;SDS011;59577;52.122;5.406;2023-04-24T07:33:03;8.67;;;3.67;;
71734;SDS011;59577;52.122;5.406;2023-04-24T07:35:29;5.57;;;3.55;;
71734;SDS011;59577;52.122;5.406;2023-04-24T07:37:56;6.22;;;3.70;;
71734;SDS011;59577;52.122;5.406;2023-04-24T07:40:22;7.50;;;3.30;;
71734;SDS011;59577;52.122;5.406;2023-04-24T07:42:49;7.00;;;3.22;;
71734;SDS011;59577;52.122;5.406;2023-04-24T07:45:16;8.47;;;3.40;;
71734;SDS011;59577;52.122;5.406;2023-04-24T07:47:43;8.25;;;2.90;;
71734;SDS011;59577;52.122;5.406;2023-04-24T07:50:12;7.30;;;3.70;;
71734;SDS011;59577;52.122;5.406;2023-04-24T07:52:39;10.23;;;3.67;;
71734;SDS011;59577;52.122;5.406;2023-04-24T07:55:06;7.32;;;3.50;;
71734;SDS011;59577;52.122;5.406;2023-04-24T07:57:33;4.73;;;2.67;;
71734;SDS011;59577;52.122;5.406;2023-04-24T08:00:00;6.00;;;3.40;;
71734;SDS011;59577;52.122;5.406;2023-04-24T08:02:26;8.15;;;3.67;;
71734;SDS011;59577;52.122;5.406;2023-04-24T08:04:53;7.07;;;3.60;;
71734;SDS011;59577;52.122;5.406;2023-04-24T08:07:21;6.28;;;3.20;;
71734;SDS011;59577;52.122;5.406;2023-04-24T08:09:47;9.03;;;3.50;;
71734;SDS011;59577;52.122;5.406;2023-04-24T08:12:14;10.10;;;3.55;;
71734;SDS011;59577;52.122;5.406;2023-04-24T08:14:41;7.13;;;3.20;;
71734;SDS011;59577;52.122;5.406;2023-04-24T08:17:08;5.90;;;2.47;;
71734;SDS011;59577;52.122;5.406;2023-04-24T08:19:35;5.53;;;2.30;;
71734;SDS011;59577;52.122;5.406;2023-04-24T08:22:01;7.27;;;2.57;;
71734;SDS011;59577;52.122;5.406;2023-04-24T08:24:30;6.82;;;2.30;;
71734;SDS011;59577;52.122;5.406;2023-04-24T08:26:56;5.13;;;1.50;;
71734;SDS011;59577;52.122;5.406;2023-04-24T08:29:24;5.00;;;1.30;;
71734;SDS011;59577;52.122;5.406;2023-04-24T08:31:51;8.38;;;1.33;;
71734;SDS011;59577;52.122;5.406;2023-04-24T08:34:17;7.27;;;1.43;;
71734;SDS011;59577;52.122;5.406;2023-04-24T08:36:44;6.85;;;1.40;;
71734;SDS011;59577;52.122;5.406;2023-04-24T08:39:12;6.85;;;1.50;;
71734;SDS011;59577;52.122;5.406;2023-04-24T08:41:40;3.72;;;1.15;;
71734;SDS011;59577;52.122;5.406;2023-04-24T08:44:09;11.35;;;1.50;;
71734;SDS011;59577;52.122;5.406;2023-04-24T08:46:36;6.23;;;1.17;;
71734;SDS011;59577;52.122;5.406;2023-04-24T08:49:03;10.85;;;1.50;;
71734;SDS011;59577;52.122;5.406;2023-04-24T08:51:31;8.07;;;1.35;;
71734;SDS011;59577;52.122;5.406;2023-04-24T08:53:57;6.05;;;1.17;;
71734;SDS011;59577;52.122;5.406;2023-04-24T08:56:24;9.18;;;1.27;;
71734;SDS011;59577;52.122;5.406;2023-04-24T08:58:51;9.23;;;1.67;;
71734;SDS011;59577;52.122;5.406;2023-04-24T09:01:19;9.32;;;1.30;;
71734;SDS011;59577;52.122;5.406;2023-04-24T09:03:47;7.95;;;0.80;;
71734;SDS011;59577;52.122;5.406;2023-04-24T09:06:16;3.92;;;1.02;;
71734;SDS011;59577;52.122;5.406;2023-04-24T09:08:44;8.40;;;1.23;;
71734;SDS011;59577;52.122;5.406;2023-04-24T09:11:11;5.93;;;0.87;;
71734;SDS011;59577;52.122;5.406;2023-04-24T09:13:38;5.63;;;0.75;;
71734;SDS011;59577;52.122;5.406;2023-04-24T09:16:05;5.75;;;0.60;;
71734;SDS011;59577;52.122;5.406;2023-04-24T09:18:31;4.90;;;0.73;;
71734;SDS011;59577;52.122;5.406;2023-04-24T09:21:03;5.45;;;1.17;;
71734;SDS011;59577;52.122;5.406;2023-04-24T09:23:33;6.47;;;1.10;;
71734;SDS011;59577;52.122;5.406;2023-04-24T09:26:00;7.10;;;1.30;;
71734;SDS011;59577;52.122;5.406;2023-04-24T09:28:32;7.30;;;0.90;;
71734;SDS011;59577;52.122;5.406;2023-04-24T09:33:56;6.53;;;0.90;;
71734;SDS011;59577;52.122;5.406;2023-04-24T09:36:27;4.57;;;0.80;;
71734;SDS011;59577;52.122;5.406;2023-04-24T09:39:07;8.63;;;0.98;;
71734;SDS011;59577;52.122;5.406;2023-04-24T09:41:35;5.97;;;1.05;;
71734;SDS011;59577;52.122;5.406;2023-04-24T09:44:12;5.13;;;0.93;;
71734;SDS011;59577;52.122;5.406;2023-04-24T09:46:41;7.07;;;0.90;;
71734;SDS011;59577;52.122;5.406;2023-04-24T09:49:09;3.17;;;1.00;;
71734;SDS011;59577;52.122;5.406;2023-04-24T09:51:38;6.22;;;1.10;;
71734;SDS011;59577;52.122;5.406;2023-04-24T09:54:15;5.47;;;1.05;;
71734;SDS011;59577;52.122;5.406;2023-04-24T09:56:47;3.95;;;0.90;;
71734;SDS011;59577;52.122;5.406;2023-04-24T09:59:16;3.95;;;0.70;;
71734;SDS011;59577;52.122;5.406;2023-04-24T10:01:44;4.67;;;0.70;;
71734;SDS011;59577;52.122;5.406;2023-04-24T10:04:24;7.18;;;0.60;;
71734;SDS011;59577;52.122;5.406;2023-04-24T10:06:53;4.40;;;0.70;;
71734;SDS011;59577;52.122;5.406;2023-04-24T10:09:23;2.75;;;0.70;;
71734;SDS011;59577;52.122;5.406;2023-04-24T10:11:51;2.83;;;0.40;;
71734;SDS011;59577;52.122;5.406;2023-04-24T10:14:20;9.40;;;1.10;;
71734;SDS011;59577;52.122;5.406;2023-04-24T10:16:49;3.28;;;0.60;;
71734;SDS011;59577;52.122;5.406;2023-04-24T10:19:16;5.32;;;1.13;;
71734;SDS011;59577;52.122;5.406;2023-04-24T10:21:46;2.65;;;0.40;;
71734;SDS011;59577;52.122;5.406;2023-04-24T10:24:14;3.33;;;0.70;;
71734;SDS011;59577;52.122;5.406;2023-04-24T10:26:42;2.30;;;0.50;;
71734;SDS011;59577;52.122;5.406;2023-04-24T10:29:10;2.40;;;0.47;;
71734;SDS011;59577;52.122;5.406;2023-04-24T10:31:39;3.95;;;0.38;;
71734;SDS011;59577;52.122;5.406;2023-04-24T10:34:06;2.67;;;0.38;;
71734;SDS011;59577;52.122;5.406;2023-04-24T10:36:34;5.07;;;0.80;;
71734;SDS011;59577;52.122;5.406;2023-04-24T10:39:03;2.40;;;0.20;;
71734;SDS011;59577;52.122;5.406;2023-04-24T10:41:36;0.93;;;0.28;;
71734;SDS011;59577;52.122;5.406;2023-04-24T10:44:16;0.40;;;0.10;;
71734;SDS011;59577;52.122;5.406;2023-04-24T10:47:02;5.07;;;0.35;;
71734;SDS011;59577;52.122;5.406;2023-04-24T10:49:39;2.50;;;0.17;;
71734;SDS011;59577;52.122;5.406;2023-04-24T10:52:06;3.77;;;0.20;;
71734;SDS011;59577;52.122;5.406;2023-04-24T10:54:44;3.05;;;0.30;;
71734;SDS011;59577;52.122;5.406;2023-04-24T11:02:56;0.85;;;0.10;;
71734;SDS011;59577;52.122;5.406;2023-04-24T11:05:49;1.30;;;0.20;;
71734;SDS011;59577;52.122;5.406;2023-04-24T11:08:25;0.65;;;0.10;;
71734;SDS011;59577;52.122;5.406;2023-04-24T11:10:57;2.25;;;0.30;;
71734;SDS011;59577;52.122;5.406;2023-04-24T11:13:25;2.25;;;0.32;;
71734;SDS011;59577;52.122;5.406;2023-04-24T11:18:39;2.43;;;0.40;;
71734;SDS011;59577;52.122;5.406;2023-04-24T11:21:12;1.23;;;0.20;;
71734;SDS011;59577;52.122;5.406;2023-04-24T11:23:43;3.08;;;0.40;;
71734;SDS011;59577;52.122;5.406;2023-04-24T11:26:19;2.78;;;0.32;;
71734;SDS011;59577;52.122;5.406;2023-04-24T11:28:49;3.38;;;0.22;;
71734;SDS011;59577;52.122;5.406;2023-04-24T11:34:09;3.90;;;0.38;;
71734;SDS011;59577;52.122;5.406;2023-04-24T11:36:38;4.32;;;0.25;;
71734;SDS011;59577;52.122;5.406;2023-04-24T11:39:05;2.78;;;0.30;;
71734;SDS011;59577;52.122;5.406;2023-04-24T11:41:33;0.30;;;0.10;;
71734;SDS011;59577;52.122;5.406;2023-04-24T11:44:00;1.70;;;0.63;;
71734;SDS011;59577;52.122;5.406;2023-04-24T11:46:27;2.40;;;0.17;;
71734;SDS011;59577;52.122;5.406;2023-04-24T11:48:56;3.60;;;0.20;;
71734;SDS011;59577;52.122;5.406;2023-04-24T11:51:23;0.90;;;0.13;;
71734;SDS011;59577;52.122;5.406;2023-04-24T11:53:58;2.58;;;0.43;;
71734;SDS011;59577;52.122;5.406;2023-04-24T11:56:29;1.93;;;0.20;;
71734;SDS011;59577;52.122;5.406;2023-04-24T11:58:56;2.00;;;0.20;;
71734;SDS011;59577;52.122;5.406;2023-04-24T12:01:22;1.33;;;0.20;;
71734;SDS011;59577;52.122;5.406;2023-04-24T12:03:50;2.17;;;0.13;;
71734;SDS011;59577;52.122;5.406;2023-04-24T12:06:20;1.33;;;0.20;;
71734;SDS011;59577;52.122;5.406;2023-04-24T12:08:46;2.03;;;0.13;;
71734;SDS011;59577;52.122;5.406;2023-04-24T12:11:14;0.63;;;0.13;;
71734;SDS011;59577;52.122;5.406;2023-04-24T12:13:44;0.45;;;0.10;;
71734;SDS011;59577;52.122;5.406;2023-04-24T12:16:11;0.77;;;0.10;;
71734;SDS011;59577;52.122;5.406;2023-04-24T12:18:42;1.10;;;0.10;;
71734;SDS011;59577;52.122;5.406;2023-04-24T12:21:20;2.03;;;0.10;;
71734;SDS011;59577;52.122;5.406;2023-04-24T12:23:48;0.82;;;0.10;;
71734;SDS011;59577;52.122;5.406;2023-04-24T12:26:18;2.58;;;0.20;;
71734;SDS011;59577;52.122;5.406;2023-04-24T12:28:47;1.70;;;0.30;;
71734;SDS011;59577;52.122;5.406;2023-04-24T12:31:15;2.38;;;0.28;;
71734;SDS011;59577;52.122;5.406;2023-04-24T12:33:42;0.80;;;0.20;;
71734;SDS011;59577;52.122;5.406;2023-04-24T12:36:10;2.08;;;0.20;;
71734;SDS011;59577;52.122;5.406;2023-04-24T12:38:38;2.25;;;0.65;;
71734;SDS011;59577;52.122;5.406;2023-04-24T12:41:11;5.20;;;0.50;;
71734;SDS011;59577;52.122;5.406;2023-04-24T12:43:50;5.88;;;0.38;;
71734;SDS011;59577;52.122;5.406;2023-04-24T12:46:18;3.27;;;0.33;;
71734;SDS011;59577;52.122;5.406;2023-04-24T12:48:47;2.45;;;0.32;;
71734;SDS011;59577;52.122;5.406;2023-04-24T12:51:14;3.35;;;0.60;;
71734;SDS011;59577;52.122;5.406;2023-04-24T12:53:40;3.97;;;0.45;;
71734;SDS011;59577;52.122;5.406;2023-04-24T12:56:07;4.03;;;0.57;;
71734;SDS011;59577;52.122;5.406;2023-04-24T12:58:34;3.60;;;1.17;;
71734;SDS011;59577;52.122;5.406;2023-04-24T13:01:01;3.38;;;0.32;;
71734;SDS011;59577;52.122;5.406;2023-04-24T13:03:28;3.13;;;0.40;;
71734;SDS011;59577;52.122;5.406;2023-04-24T13:05:55;6.00;;;0.65;;
71734;SDS011;59577;52.122;5.406;2023-04-24T13:08:21;5.88;;;0.50;;
71734;SDS011;59577;52.122;5.406;2023-04-24T13:10:48;4.20;;;0.50;;
71734;SDS011;59577;52.122;5.406;2023-04-24T13:13:15;6.32;;;1.02;;
71734;SDS011;59577;52.122;5.406;2023-04-24T13:15:41;3.90;;;0.50;;
71734;SDS011;59577;52.122;5.406;2023-04-24T13:18:07;10.00;;;0.77;;
71734;SDS011;59577;52.122;5.406;2023-04-24T13:20:34;4.30;;;0.50;;
71734;SDS011;59577;52.122;5.406;2023-04-24T13:23:01;4.83;;;0.70;;
71734;SDS011;59577;52.122;5.406;2023-04-24T13:25:34;4.95;;;0.80;;
71734;SDS011;59577;52.122;5.406;2023-04-24T13:28:02;6.95;;;0.80;;
71734;SDS011;59577;52.122;5.406;2023-04-24T13:30:28;3.95;;;0.57;;
71734;SDS011;59577;52.122;5.406;2023-04-24T13:32:55;4.95;;;0.75;;
71734;SDS011;59577;52.122;5.406;2023-04-24T13:35:21;9.13;;;1.10;;
71734;SDS011;59577;52.122;5.406;2023-04-24T13:37:48;2.78;;;0.65;;
71734;SDS011;59577;52.122;5.406;2023-04-24T13:40:15;6.88;;;1.13;;
71734;SDS011;59577;52.122;5.406;2023-04-24T13:42:41;6.05;;;1.02;;
71734;SDS011;59577;52.122;5.406;2023-04-24T13:45:09;4.93;;;0.60;;
71734;SDS011;59577;52.122;5.406;2023-04-24T13:47:49;7.37;;;0.73;;
71734;SDS011;59577;52.122;5.406;2023-04-24T13:50:17;5.15;;;1.00;;
71734;SDS011;59577;52.122;5.406;2023-04-24T13:52:44;8.52;;;0.82;;
71734;SDS011;59577;52.122;5.406;2023-04-24T13:55:11;4.20;;;0.70;;
71734;SDS011;59577;52.122;5.406;2023-04-24T13:57:37;6.68;;;1.15;;
71734;SDS011;59577;52.122;5.406;2023-04-24T14:00:04;3.47;;;0.97;;
71734;SDS011;59577;52.122;5.406;2023-04-24T14:02:32;5.35;;;0.50;;
71734;SDS011;59577;52.122;5.406;2023-04-24T14:04:59;4.93;;;0.60;;
71734;SDS011;59577;52.122;5.406;2023-04-24T14:07:26;5.82;;;1.08;;
71734;SDS011;59577;52.122;5.406;2023-04-24T14:09:52;3.78;;;0.65;;
71734;SDS011;59577;52.122;5.406;2023-04-24T14:12:19;5.53;;;0.97;;
71734;SDS011;59577;52.122;5.406;2023-04-24T14:14:46;3.50;;;0.75;;
71734;SDS011;59577;52.122;5.406;2023-04-24T14:17:14;5.97;;;0.85;;
71734;SDS011;59577;52.122;5.406;2023-04-24T14:19:40;4.40;;;0.77;;
71734;SDS011;59577;52.122;5.406;2023-04-24T14:22:07;3.28;;;0.90;;
71734;SDS011;59577;52.122;5.406;2023-04-24T14:24:34;6.63;;;0.83;;
71734;SDS011;59577;52.122;5.406;2023-04-24T14:27:00;6.32;;;0.88;;
71734;SDS011;59577;52.122;5.406;2023-04-24T14:29:27;4.50;;;0.90;;
71734;SDS011;59577;52.122;5.406;2023-04-24T14:31:54;5.63;;;1.00;;
71734;SDS011;59577;52.122;5.406;2023-04-24T14:34:21;4.95;;;0.88;;
71734;SDS011;59577;52.122;5.406;2023-04-24T14:36:47;6.50;;;0.90;;
71734;SDS011;59577;52.122;5.406;2023-04-24T14:39:14;6.10;;;1.33;;
71734;SDS011;59577;52.122;5.406;2023-04-24T14:41:40;5.43;;;0.93;;
71734;SDS011;59577;52.122;5.406;2023-04-24T14:44:07;7.85;;;1.10;;
71734;SDS011;59577;52.122;5.406;2023-04-24T14:46:33;5.70;;;1.30;;
71734;SDS011;59577;52.122;5.406;2023-04-24T14:49:00;7.90;;;1.30;;
71734;SDS011;59577;52.122;5.406;2023-04-24T14:51:26;4.97;;;1.17;;
71734;SDS011;59577;52.122;5.406;2023-04-24T14:53:53;6.38;;;0.93;;
71734;SDS011;59577;52.122;5.406;2023-04-24T14:56:20;4.93;;;0.90;;
71734;SDS011;59577;52.122;5.406;2023-04-24T14:58:46;4.75;;;0.77;;
71734;SDS011;59577;52.122;5.406;2023-04-24T15:01:13;6.47;;;0.80;;
71734;SDS011;59577;52.122;5.406;2023-04-24T15:03:41;5.40;;;0.98;;
71734;SDS011;59577;52.122;5.406;2023-04-24T15:06:08;8.25;;;0.95;;